createdAt,value
2022-11-23T00:00:40.521Z,10.05
2022-11-23T00:01:40.657Z,10.07
2022-11-23T00:02:40.579Z,10.07
2022-11-23T00:03:40.453Z,10.07
2022-11-23T00:04:41.483Z,10.08
2022-11-23T00:05:40.899Z,10.09
2022-11-23T00:06:39.597Z,10.10
2022-11-23T00:07:41.051Z,10.10
2022-11-23T00:08:40.869Z,10.10
2022-11-23T00:09:40.961Z,10.11
2022-11-23T00:10:40.410Z,10.11
2022-11-23T00:11:39.483Z,10.11
2022-11-23T00:12:40.331Z,10.12
2022-11-23T00:13:40.326Z,10.13
2022-11-23T00:14:40.352Z,10.12
2022-11-23T00:15:40.375Z,10.12
2022-11-23T00:16:40.151Z,10.12
2022-11-23T00:17:40.431Z,10.12
2022-11-23T00:18:40.313Z,10.12
2022-11-23T00:19:40.784Z,10.12
2022-11-23T00:20:40.294Z,10.11
2022-11-23T00:21:40.802Z,10.11
2022-11-23T00:22:40.313Z,10.11
2022-11-23T00:23:40.235Z,10.10
2022-11-23T00:24:40.287Z,10.09
2022-11-23T00:25:39.294Z,10.09
2022-11-23T00:26:40.674Z,10.09
2022-11-23T00:27:40.223Z,10.08
2022-11-23T00:28:40.151Z,10.07
2022-11-23T00:29:40.662Z,10.07
2022-11-23T00:30:40.681Z,10.06
2022-11-23T00:31:40.808Z,10.05
2022-11-23T00:32:40.626Z,10.05
2022-11-23T00:33:40.687Z,10.04
2022-11-23T00:34:40.104Z,10.03
2022-11-23T00:35:39.195Z,10.03
2022-11-23T00:36:40.555Z,10.02
2022-11-23T00:37:40.076Z,10.01
2022-11-23T00:38:40.557Z,10.00
2022-11-23T00:39:40.058Z,9.98
2022-11-23T00:40:41.096Z,9.97
2022-11-23T00:41:40.558Z,9.96
2022-11-23T00:42:40.116Z,9.95
2022-11-23T00:43:40.039Z,9.94
2022-11-23T00:44:40.028Z,9.93
2022-11-23T00:45:40.476Z,9.92
2022-11-23T00:46:40.451Z,9.90
2022-11-23T00:47:40.437Z,9.89
2022-11-23T00:48:40.437Z,9.88
2022-11-23T00:49:40.428Z,9.87
2022-11-23T00:50:39.902Z,9.86
2022-11-23T00:51:40.443Z,9.85
2022-11-23T00:52:40.388Z,9.84
2022-11-23T00:53:39.881Z,9.85
2022-11-23T00:54:40.388Z,9.84
2022-11-23T00:55:39.868Z,9.84
2022-11-23T00:56:38.929Z,9.84
2022-11-23T00:57:40.391Z,9.84
2022-11-23T00:58:38.933Z,9.83
2022-11-23T00:59:39.930Z,9.82
2022-11-23T01:00:40.283Z,9.83
2022-11-23T01:01:39.924Z,9.84
2022-11-23T01:02:40.315Z,9.84
2022-11-23T01:03:39.905Z,9.84
2022-11-23T01:04:39.788Z,9.86
2022-11-23T01:05:39.775Z,9.86
2022-11-23T01:06:39.790Z,9.86
2022-11-23T01:07:39.745Z,9.87
2022-11-23T01:08:40.314Z,9.88
2022-11-23T01:09:39.716Z,9.89
2022-11-23T01:10:40.207Z,9.90
2022-11-23T01:11:38.780Z,9.90
2022-11-23T01:12:38.760Z,9.92
2022-11-23T01:13:38.746Z,9.92
2022-11-23T01:14:39.692Z,9.93
2022-11-23T01:15:39.645Z,9.94
2022-11-23T01:16:38.799Z,9.95
2022-11-23T01:17:40.154Z,9.96
2022-11-23T01:18:39.651Z,9.96
2022-11-23T01:19:40.155Z,9.97
2022-11-23T01:20:39.656Z,9.98
2022-11-23T01:21:38.687Z,9.99
2022-11-23T01:22:40.379Z,10.00
2022-11-23T01:23:41.107Z,10.00
2022-11-23T01:24:39.590Z,10.00
2022-11-23T01:25:40.086Z,10.01
2022-11-23T01:26:39.642Z,10.02
2022-11-23T01:27:38.575Z,10.02
2022-11-23T01:28:40.026Z,10.03
2022-11-23T01:29:39.149Z,10.03
2022-11-23T01:30:39.975Z,10.03
2022-11-23T01:31:44.676Z,10.03
2022-11-23T01:32:40.496Z,10.04
2022-11-23T01:33:39.459Z,10.05
2022-11-23T01:34:39.867Z,10.05
2022-11-23T01:35:39.462Z,10.06
2022-11-23T01:36:38.496Z,10.05
2022-11-23T01:37:39.395Z,10.06
2022-11-23T01:38:39.323Z,10.06
2022-11-23T01:39:38.466Z,10.06
2022-11-23T01:40:39.898Z,10.06
2022-11-23T01:41:39.368Z,10.06
2022-11-23T01:42:38.460Z,10.06
2022-11-23T01:43:39.348Z,10.06
2022-11-23T01:44:38.480Z,10.06
2022-11-23T01:45:39.331Z,10.06
2022-11-23T01:46:39.290Z,10.06
2022-11-23T01:47:39.056Z,10.06
2022-11-23T01:48:39.260Z,10.07
2022-11-23T01:49:38.368Z,10.07
2022-11-23T01:50:38.440Z,10.07
2022-11-23T01:51:38.343Z,10.08
2022-11-23T01:52:38.300Z,10.07
2022-11-23T01:53:39.272Z,10.08
2022-11-23T01:54:39.740Z,10.08
2022-11-23T01:55:38.349Z,10.08
2022-11-23T01:56:38.294Z,10.09
2022-11-23T01:57:39.262Z,10.08
2022-11-23T01:58:39.194Z,10.09
2022-11-23T01:59:38.252Z,10.09
2022-11-23T02:00:39.172Z,10.08
2022-11-23T02:01:38.259Z,10.09
2022-11-23T02:02:39.342Z,10.09
2022-11-23T02:03:39.126Z,10.09
2022-11-23T02:04:39.662Z,10.10
2022-11-23T02:05:40.134Z,10.11
2022-11-23T02:06:38.144Z,10.12
2022-11-23T02:07:39.123Z,10.12
2022-11-23T02:08:38.275Z,10.13
2022-11-23T02:09:38.145Z,10.14
2022-11-23T02:10:39.038Z,10.14
2022-11-23T02:11:39.018Z,10.15
2022-11-23T02:12:39.036Z,10.16
2022-11-23T02:13:39.010Z,10.17
2022-11-23T02:14:38.150Z,10.19
2022-11-23T02:15:39.508Z,10.19
2022-11-23T02:16:38.044Z,10.20
2022-11-23T02:17:38.067Z,10.21
2022-11-23T02:18:38.067Z,10.23
2022-11-23T02:19:39.467Z,10.24
2022-11-23T02:20:38.908Z,10.24
2022-11-23T02:21:38.007Z,10.25
2022-11-23T02:22:38.831Z,10.25
2022-11-23T02:23:37.966Z,10.25
2022-11-23T02:24:39.326Z,10.26
2022-11-23T02:25:39.395Z,10.26
2022-11-23T02:26:38.894Z,10.27
2022-11-23T02:27:43.963Z,10.27
2022-11-23T02:28:40.354Z,10.27
2022-11-23T02:29:40.349Z,10.26
2022-11-23T02:30:38.855Z,10.25
2022-11-23T02:31:37.901Z,10.24
2022-11-23T02:32:38.082Z,10.24
2022-11-23T02:33:37.895Z,10.24
2022-11-23T02:34:39.279Z,10.23
2022-11-23T02:35:37.876Z,10.22
2022-11-23T02:36:37.894Z,10.22
2022-11-23T02:37:38.740Z,10.22
2022-11-23T02:38:37.888Z,10.21
2022-11-23T02:39:37.832Z,10.22
2022-11-23T02:40:38.728Z,10.22
2022-11-23T02:41:38.813Z,10.21
2022-11-23T02:42:39.193Z,10.21
2022-11-23T02:43:38.719Z,10.21
2022-11-23T02:44:38.674Z,10.21
2022-11-23T02:45:37.746Z,10.20
2022-11-23T02:46:37.855Z,10.21
2022-11-23T02:47:39.138Z,10.21
2022-11-23T02:48:37.746Z,10.21
2022-11-23T02:49:38.662Z,10.22
2022-11-23T02:50:39.153Z,10.22
2022-11-23T02:51:39.144Z,10.22
2022-11-23T02:52:37.698Z,10.21
2022-11-23T02:53:39.143Z,10.22
2022-11-23T02:54:39.063Z,10.22
2022-11-23T02:55:39.085Z,10.21
2022-11-23T02:56:39.036Z,10.21
2022-11-23T02:57:39.054Z,10.21
2022-11-23T02:58:37.583Z,10.21
2022-11-23T02:59:37.594Z,10.21
2022-11-23T03:00:39.053Z,10.21
2022-11-23T03:01:38.776Z,10.21
2022-11-23T03:02:37.544Z,10.21
2022-11-23T03:03:38.946Z,10.21
2022-11-23T03:04:38.995Z,10.22
2022-11-23T03:05:38.447Z,10.22
2022-11-23T03:06:38.925Z,10.22
2022-11-23T03:07:38.445Z,10.24
2022-11-23T03:08:37.476Z,10.24
2022-11-23T03:09:38.906Z,10.24
2022-11-23T03:10:37.455Z,10.25
2022-11-23T03:11:38.380Z,10.25
2022-11-23T03:12:38.167Z,10.25
2022-11-23T03:13:38.377Z,10.26
2022-11-23T03:14:38.376Z,10.28
2022-11-23T03:15:38.856Z,10.28
2022-11-23T03:16:38.809Z,10.27
2022-11-23T03:17:37.374Z,10.27
2022-11-23T03:18:38.797Z,10.26
2022-11-23T03:19:38.918Z,10.26
2022-11-23T03:20:38.803Z,10.26
2022-11-23T03:21:38.757Z,10.25
2022-11-23T03:22:38.778Z,10.24
2022-11-23T03:23:38.729Z,10.24
2022-11-23T03:24:38.751Z,10.23
2022-11-23T03:25:38.847Z,10.21
2022-11-23T03:26:37.280Z,10.21
2022-11-23T03:27:37.299Z,10.20
2022-11-23T03:28:38.680Z,10.20
2022-11-23T03:29:38.189Z,10.19
2022-11-23T03:30:37.262Z,10.18
2022-11-23T03:31:37.230Z,10.17
2022-11-23T03:32:38.639Z,10.16
2022-11-23T03:33:38.639Z,10.14
2022-11-23T03:34:37.208Z,10.15
2022-11-23T03:35:38.633Z,10.14
2022-11-23T03:36:38.712Z,10.14
2022-11-23T03:37:37.271Z,10.13
2022-11-23T03:38:38.573Z,10.15
2022-11-23T03:39:37.195Z,10.14
2022-11-23T03:40:38.546Z,10.15
2022-11-23T03:41:37.542Z,10.14
2022-11-23T03:42:38.552Z,10.14
2022-11-23T03:43:38.034Z,10.15
2022-11-23T03:44:38.036Z,10.15
2022-11-23T03:45:37.084Z,10.14
2022-11-23T03:46:37.092Z,10.16
2022-11-23T03:47:38.983Z,10.15
2022-11-23T03:48:37.164Z,10.15
2022-11-23T03:49:37.094Z,10.17
2022-11-23T03:50:37.956Z,10.16
2022-11-23T03:51:38.053Z,10.17
2022-11-23T03:52:38.454Z,10.17
2022-11-23T03:53:38.414Z,10.17
2022-11-23T03:54:38.064Z,10.17
2022-11-23T03:55:38.434Z,10.18
2022-11-23T03:56:38.010Z,10.19
2022-11-23T03:57:37.886Z,10.19
2022-11-23T03:58:37.905Z,10.20
2022-11-23T03:59:38.771Z,10.21
2022-11-23T04:00:38.399Z,10.21
2022-11-23T04:01:36.905Z,10.22
2022-11-23T04:02:38.327Z,10.23
2022-11-23T04:03:37.797Z,10.23
2022-11-23T04:04:38.296Z,10.25
2022-11-23T04:05:36.870Z,10.25
2022-11-23T04:06:37.840Z,10.27
2022-11-23T04:07:37.808Z,10.27
2022-11-23T04:08:38.248Z,10.27
2022-11-23T04:09:37.768Z,10.29
2022-11-23T04:10:38.247Z,10.29
2022-11-23T04:11:37.718Z,10.30
2022-11-23T04:12:38.318Z,10.31
2022-11-23T04:13:38.207Z,10.32
2022-11-23T04:14:37.709Z,10.33
2022-11-23T04:15:37.688Z,10.35
2022-11-23T04:16:37.668Z,10.37
2022-11-23T04:17:36.761Z,10.36
2022-11-23T04:18:38.204Z,10.37
2022-11-23T04:19:37.289Z,10.37
2022-11-23T04:20:38.740Z,10.38
2022-11-23T04:21:38.100Z,10.38
2022-11-23T04:22:37.690Z,10.39
2022-11-23T04:23:37.742Z,10.40
2022-11-23T04:24:37.522Z,10.39
2022-11-23T04:25:36.820Z,10.39
2022-11-23T04:26:36.664Z,10.40
2022-11-23T04:27:37.579Z,10.39
2022-11-23T04:28:37.543Z,10.40
2022-11-23T04:29:38.071Z,10.39
2022-11-23T04:30:38.190Z,10.40
2022-11-23T04:31:38.014Z,10.40
2022-11-23T04:32:37.512Z,10.40
2022-11-23T04:33:38.012Z,10.41
2022-11-23T04:34:37.993Z,10.41
2022-11-23T04:35:37.993Z,10.41
2022-11-23T04:36:38.104Z,10.42
2022-11-23T04:37:37.453Z,10.42
2022-11-23T04:38:37.447Z,10.42
2022-11-23T04:39:36.604Z,10.43
2022-11-23T04:40:37.939Z,10.43
2022-11-23T04:41:37.433Z,10.44
2022-11-23T04:42:37.872Z,10.43
2022-11-23T04:43:37.874Z,10.43
2022-11-23T04:44:37.874Z,10.43
2022-11-23T04:45:37.843Z,10.44
2022-11-23T04:46:36.490Z,10.44
2022-11-23T04:47:37.455Z,10.45
2022-11-23T04:48:37.844Z,10.45
2022-11-23T04:49:37.316Z,10.45
2022-11-23T04:50:40.462Z,10.45
2022-11-23T04:51:36.377Z,10.46
2022-11-23T04:52:36.454Z,10.45
2022-11-23T04:53:37.678Z,10.45
2022-11-23T04:54:37.440Z,10.45
2022-11-23T04:55:37.621Z,10.45
2022-11-23T04:56:37.775Z,10.45
2022-11-23T04:57:36.354Z,10.45
2022-11-23T04:58:37.268Z,10.44
2022-11-23T04:59:37.397Z,10.45
2022-11-23T05:00:37.227Z,10.44
2022-11-23T05:01:37.738Z,10.44
2022-11-23T05:02:37.677Z,10.45
2022-11-23T05:03:37.159Z,10.45
2022-11-23T05:04:37.153Z,10.45
2022-11-23T05:05:37.158Z,10.45
2022-11-23T05:06:38.130Z,10.45
2022-11-23T05:07:37.652Z,10.45
2022-11-23T05:08:37.099Z,10.45
2022-11-23T05:09:37.019Z,10.45
2022-11-23T05:10:37.078Z,10.45
2022-11-23T05:11:37.119Z,10.44
2022-11-23T05:12:37.569Z,10.44
2022-11-23T05:13:37.579Z,10.45
2022-11-23T05:14:37.072Z,10.45
2022-11-23T05:15:37.060Z,10.44
2022-11-23T05:16:37.049Z,10.44
2022-11-23T05:17:37.063Z,10.45
2022-11-23T05:18:37.521Z,10.44
2022-11-23T05:19:36.270Z,10.45
2022-11-23T05:20:36.660Z,10.45
2022-11-23T05:21:36.800Z,10.44
2022-11-23T05:22:36.412Z,10.45
2022-11-23T05:23:37.612Z,10.45
2022-11-23T05:24:36.953Z,10.45
2022-11-23T05:25:36.923Z,10.45
2022-11-23T05:26:36.933Z,10.45
2022-11-23T05:27:37.402Z,10.44
2022-11-23T05:28:41.173Z,10.44
2022-11-23T05:29:36.253Z,10.44
2022-11-23T05:30:36.194Z,10.44
2022-11-23T05:31:35.929Z,10.43
2022-11-23T05:32:36.297Z,10.42
2022-11-23T05:33:36.834Z,10.41
2022-11-23T05:34:35.894Z,10.41
2022-11-23T05:35:35.934Z,10.40
2022-11-23T05:36:40.796Z,10.39
2022-11-23T05:37:37.805Z,10.38
2022-11-23T05:38:36.774Z,10.38
2022-11-23T05:39:35.836Z,10.37
2022-11-23T05:40:36.765Z,10.36
2022-11-23T05:41:36.805Z,10.36
2022-11-23T05:42:37.736Z,10.36
2022-11-23T05:43:35.794Z,10.35
2022-11-23T05:44:36.747Z,10.35
2022-11-23T05:45:37.235Z,10.34
2022-11-23T05:46:37.186Z,10.35
2022-11-23T05:47:36.803Z,10.34
2022-11-23T05:48:37.195Z,10.33
2022-11-23T05:49:37.696Z,10.32
2022-11-23T05:50:37.147Z,10.31
2022-11-23T05:51:37.146Z,10.30
2022-11-23T05:52:37.127Z,10.28
2022-11-23T05:53:35.687Z,10.28
2022-11-23T05:54:36.665Z,10.27
2022-11-23T05:55:36.653Z,10.25
2022-11-23T05:56:40.197Z,10.25
2022-11-23T05:57:37.098Z,10.25
2022-11-23T05:58:37.091Z,10.25
2022-11-23T05:59:36.549Z,10.23
2022-11-23T06:00:35.635Z,10.24
2022-11-23T06:01:36.548Z,10.23
2022-11-23T06:02:41.041Z,10.23
2022-11-23T06:03:36.749Z,10.23
2022-11-23T06:04:36.999Z,10.23
2022-11-23T06:05:37.082Z,10.24
2022-11-23T06:06:36.500Z,10.23
2022-11-23T06:07:37.531Z,10.22
2022-11-23T06:08:36.950Z,10.22
2022-11-23T06:09:37.063Z,10.22
2022-11-23T06:10:36.950Z,10.23
2022-11-23T06:11:36.410Z,10.23
2022-11-23T06:12:35.524Z,10.23
2022-11-23T06:13:36.392Z,10.23
2022-11-23T06:14:36.405Z,10.22
2022-11-23T06:15:36.894Z,10.22
2022-11-23T06:16:36.862Z,10.23
2022-11-23T06:17:35.802Z,10.23
2022-11-23T06:18:36.364Z,10.23
2022-11-23T06:19:36.341Z,10.24
2022-11-23T06:20:36.852Z,10.24
2022-11-23T06:21:36.882Z,10.24
2022-11-23T06:22:36.832Z,10.25
2022-11-23T06:23:36.313Z,10.25
2022-11-23T06:24:35.395Z,10.26
2022-11-23T06:25:36.284Z,10.27
2022-11-23T06:26:35.344Z,10.26
2022-11-23T06:27:36.114Z,10.27
2022-11-23T06:28:35.537Z,10.28
2022-11-23T06:29:35.322Z,10.28
2022-11-23T06:30:35.316Z,10.29
2022-11-23T06:31:36.215Z,10.29
2022-11-23T06:32:36.694Z,10.29
2022-11-23T06:33:36.247Z,10.29
2022-11-23T06:34:36.185Z,10.29
2022-11-23T06:35:36.655Z,10.30
2022-11-23T06:36:37.175Z,10.29
2022-11-23T06:37:36.655Z,10.29
2022-11-23T06:38:36.665Z,10.29
2022-11-23T06:39:37.061Z,10.29
2022-11-23T06:40:35.204Z,10.28
2022-11-23T06:41:35.185Z,10.28
2022-11-23T06:42:39.428Z,10.28
2022-11-23T06:43:36.616Z,10.28
2022-11-23T06:44:36.577Z,10.27
2022-11-23T06:45:36.617Z,10.27
2022-11-23T06:46:36.627Z,10.27
2022-11-23T06:47:35.118Z,10.27
2022-11-23T06:48:36.550Z,10.26
2022-11-23T06:49:35.096Z,10.26
2022-11-23T06:50:35.108Z,10.26
2022-11-23T06:51:36.537Z,10.26
2022-11-23T06:52:36.500Z,10.26
2022-11-23T06:53:35.989Z,10.25
2022-11-23T06:54:36.044Z,10.25
2022-11-23T06:55:36.449Z,10.25
2022-11-23T06:56:36.437Z,10.25
2022-11-23T06:57:35.950Z,10.26
2022-11-23T06:58:36.411Z,10.25
2022-11-23T06:59:35.157Z,10.26
2022-11-23T07:00:36.413Z,10.26
2022-11-23T07:01:36.431Z,10.26
2022-11-23T07:02:35.926Z,10.27
2022-11-23T07:03:36.413Z,10.27
2022-11-23T07:04:34.948Z,10.27
2022-11-23T07:05:34.957Z,10.28
2022-11-23T07:06:35.852Z,10.28
2022-11-23T07:07:36.392Z,10.28
2022-11-23T07:08:36.462Z,10.29
2022-11-23T07:09:36.347Z,10.30
2022-11-23T07:10:35.813Z,10.31
2022-11-23T07:11:36.272Z,10.31
2022-11-23T07:12:36.263Z,10.31
2022-11-23T07:13:35.594Z,10.32
2022-11-23T07:14:34.934Z,10.32
2022-11-23T07:15:34.817Z,10.33
2022-11-23T07:16:34.796Z,10.34
2022-11-23T07:17:35.739Z,10.35
2022-11-23T07:18:36.237Z,10.36
2022-11-23T07:19:36.204Z,10.37
2022-11-23T07:20:36.237Z,10.38
2022-11-23T07:21:34.743Z,10.38
2022-11-23T07:22:35.685Z,10.39
2022-11-23T07:23:34.726Z,10.39
2022-11-23T07:24:40.500Z,10.39
2022-11-23T07:25:36.646Z,10.39
2022-11-23T07:26:36.137Z,10.39
2022-11-23T07:27:36.177Z,10.41
2022-11-23T07:28:35.636Z,10.41
2022-11-23T07:29:36.105Z,10.40
2022-11-23T07:30:36.100Z,10.39
2022-11-23T07:31:35.618Z,10.40
2022-11-23T07:32:34.627Z,10.39
2022-11-23T07:33:35.557Z,10.40
2022-11-23T07:34:35.537Z,10.41
2022-11-23T07:35:36.031Z,10.41
2022-11-23T07:36:36.020Z,10.42
2022-11-23T07:37:34.627Z,10.43
2022-11-23T07:38:35.518Z,10.44
2022-11-23T07:39:56.207Z,10.45
2022-11-23T07:40:36.457Z,10.46
2022-11-23T07:41:36.012Z,10.48
2022-11-23T07:42:42.882Z,10.48
2022-11-23T07:43:36.961Z,10.50
2022-11-23T07:44:35.168Z,10.50
2022-11-23T07:45:35.941Z,10.52
2022-11-23T07:46:35.927Z,10.52
2022-11-23T07:47:35.475Z,10.53
2022-11-23T07:48:36.691Z,10.55
2022-11-23T07:49:35.492Z,10.57
2022-11-23T07:50:35.382Z,10.58
2022-11-23T07:51:35.874Z,10.60
2022-11-23T07:52:35.840Z,10.60
2022-11-23T07:53:35.841Z,10.59
2022-11-23T07:54:35.833Z,10.60
2022-11-23T07:55:35.851Z,10.61
2022-11-23T07:56:35.853Z,10.62
2022-11-23T07:57:35.811Z,10.64
2022-11-23T07:58:35.294Z,10.65
2022-11-23T07:59:35.782Z,10.66
2022-11-23T08:00:35.262Z,10.67
2022-11-23T08:01:35.282Z,10.68
2022-11-23T08:02:35.857Z,10.71
2022-11-23T08:03:35.385Z,10.75
2022-11-23T08:04:36.041Z,10.76
2022-11-23T08:05:35.727Z,10.78
2022-11-23T08:06:35.393Z,10.78
2022-11-23T08:07:34.469Z,10.78
2022-11-23T08:08:35.705Z,10.78
2022-11-23T08:09:35.175Z,10.79
2022-11-23T08:10:37.600Z,10.80
2022-11-23T08:11:36.138Z,10.83
2022-11-23T08:12:35.647Z,10.83
2022-11-23T08:13:35.746Z,10.85
2022-11-23T08:14:35.790Z,10.85
2022-11-23T08:15:35.105Z,10.85
2022-11-23T08:16:35.597Z,10.86
2022-11-23T08:17:35.585Z,10.86
2022-11-23T08:18:35.576Z,10.84
2022-11-23T08:19:35.186Z,10.83
2022-11-23T08:20:36.828Z,10.82
2022-11-23T08:21:35.540Z,10.80
2022-11-23T08:22:35.516Z,10.78
2022-11-23T08:23:35.537Z,10.77
2022-11-23T08:24:35.331Z,10.77
2022-11-23T08:25:35.630Z,10.77
2022-11-23T08:26:35.590Z,10.78
2022-11-23T08:27:35.466Z,10.79
2022-11-23T08:28:35.489Z,10.81
2022-11-23T08:29:34.949Z,10.81
2022-11-23T08:30:34.957Z,10.82
2022-11-23T08:31:35.970Z,10.82
2022-11-23T08:32:34.908Z,10.84
2022-11-23T08:33:35.402Z,10.85
2022-11-23T08:34:35.211Z,10.87
2022-11-23T08:35:35.371Z,10.89
2022-11-23T08:36:33.947Z,10.92
2022-11-23T08:37:35.422Z,10.95
2022-11-23T08:38:35.331Z,10.97
2022-11-23T08:39:34.831Z,10.99
2022-11-23T08:40:35.342Z,11.01
2022-11-23T08:41:35.340Z,11.01
2022-11-23T08:42:34.791Z,11.01
2022-11-23T08:43:34.833Z,11.03
2022-11-23T08:44:35.613Z,11.05
2022-11-23T08:45:34.762Z,11.05
2022-11-23T08:46:34.804Z,11.07
2022-11-23T08:47:34.743Z,11.09
2022-11-23T08:48:33.822Z,11.11
2022-11-23T08:49:34.841Z,11.12
2022-11-23T08:50:34.712Z,11.14
2022-11-23T08:51:34.713Z,11.16
2022-11-23T08:52:34.685Z,11.18
2022-11-23T08:53:35.192Z,11.21
2022-11-23T08:54:34.380Z,11.23
2022-11-23T08:55:34.715Z,11.25
2022-11-23T08:56:33.882Z,11.26
2022-11-23T08:57:33.743Z,11.27
2022-11-23T08:58:34.647Z,11.26
2022-11-23T08:59:34.653Z,11.27
2022-11-23T09:00:34.612Z,11.30
2022-11-23T09:01:34.666Z,11.31
2022-11-23T09:02:35.074Z,11.33
2022-11-23T09:03:35.066Z,11.34
2022-11-23T09:04:34.758Z,11.34
2022-11-23T09:05:34.545Z,11.35
2022-11-23T09:06:35.545Z,11.35
2022-11-23T09:07:35.176Z,11.36
2022-11-23T09:08:35.007Z,11.37
2022-11-23T09:09:34.497Z,11.38
2022-11-23T09:10:33.604Z,11.39
2022-11-23T09:11:33.567Z,11.40
2022-11-23T09:12:33.607Z,11.39
2022-11-23T09:13:34.503Z,11.38
2022-11-23T09:14:34.878Z,11.40
2022-11-23T09:15:35.458Z,11.42
2022-11-23T09:16:34.185Z,11.45
2022-11-23T09:17:35.437Z,11.47
2022-11-23T09:18:35.437Z,11.48
2022-11-23T09:19:35.559Z,11.48
2022-11-23T09:20:34.943Z,11.49
2022-11-23T09:21:35.424Z,11.49
2022-11-23T09:22:35.419Z,11.51
2022-11-23T09:23:35.379Z,11.53
2022-11-23T09:24:35.800Z,11.55
2022-11-23T09:25:35.459Z,11.59
2022-11-23T09:26:34.349Z,11.64
2022-11-23T09:27:34.379Z,11.68
2022-11-23T09:28:34.321Z,11.70
2022-11-23T09:29:34.350Z,11.74
2022-11-23T09:30:35.309Z,11.79
2022-11-23T09:31:35.330Z,11.84
2022-11-23T09:32:35.294Z,11.90
2022-11-23T09:33:35.281Z,11.96
2022-11-23T09:34:34.576Z,12.02
2022-11-23T09:35:35.051Z,12.06
2022-11-23T09:36:34.241Z,12.11
2022-11-23T09:37:35.346Z,12.13
2022-11-23T09:39:35.212Z,12.21
2022-11-23T09:40:34.211Z,12.25
2022-11-23T09:41:35.194Z,12.28
2022-11-23T09:42:35.320Z,12.30
2022-11-23T09:43:35.290Z,12.32
2022-11-23T09:44:35.295Z,12.33
2022-11-23T09:45:34.780Z,12.35
2022-11-23T09:46:37.163Z,12.37
2022-11-23T09:47:34.114Z,12.38
2022-11-23T09:48:35.106Z,12.40
2022-11-23T09:49:35.124Z,12.42
2022-11-23T09:50:34.614Z,12.43
2022-11-23T09:51:35.075Z,12.45
2022-11-23T09:52:35.075Z,12.48
2022-11-23T09:53:35.059Z,12.52
2022-11-23T09:54:35.278Z,12.57
2022-11-23T09:55:35.170Z,12.62
2022-11-23T09:56:35.041Z,12.67
2022-11-23T09:57:35.018Z,12.70
2022-11-23T09:58:34.017Z,12.74
2022-11-23T09:59:34.999Z,12.79
2022-11-23T10:00:35.003Z,12.84
2022-11-23T10:01:35.058Z,12.89
2022-11-23T10:02:34.968Z,12.94
2022-11-23T10:03:34.958Z,12.98
2022-11-23T10:04:35.124Z,13.02
2022-11-23T10:05:33.928Z,13.05
2022-11-23T10:06:34.019Z,13.09
2022-11-23T10:07:34.942Z,13.13
2022-11-23T10:08:34.900Z,13.19
2022-11-23T10:09:34.881Z,13.22
2022-11-23T10:10:34.871Z,13.27
2022-11-23T10:11:34.859Z,13.31
2022-11-23T10:12:39.818Z,13.36
2022-11-23T10:13:35.330Z,13.42
2022-11-23T10:14:35.042Z,13.47
2022-11-23T10:15:33.836Z,13.53
2022-11-23T10:16:34.800Z,13.59
2022-11-23T10:17:33.842Z,13.64
2022-11-23T10:18:34.291Z,13.68
2022-11-23T10:19:34.791Z,13.71
2022-11-23T10:20:34.268Z,13.74
2022-11-23T10:21:34.763Z,13.78
2022-11-23T10:22:34.744Z,13.81
2022-11-23T10:23:34.756Z,13.83
2022-11-23T10:24:35.028Z,13.85
2022-11-23T10:25:38.916Z,13.86
2022-11-23T10:26:34.711Z,13.87
2022-11-23T10:27:34.683Z,13.87
2022-11-23T10:28:34.665Z,13.89
2022-11-23T10:29:34.679Z,13.89
2022-11-23T10:30:34.669Z,13.90
2022-11-23T10:31:34.674Z,13.90
2022-11-23T10:32:34.652Z,13.91
2022-11-23T10:33:34.605Z,13.91
2022-11-23T10:34:34.480Z,13.92
2022-11-23T10:35:32.757Z,13.94
2022-11-23T10:36:33.586Z,13.99
2022-11-23T10:37:34.634Z,14.05
2022-11-23T10:38:33.588Z,14.09
2022-11-23T10:39:33.588Z,14.14
2022-11-23T10:40:33.541Z,14.17
2022-11-23T10:41:33.578Z,14.20
2022-11-23T10:42:34.526Z,14.23
2022-11-23T10:43:34.546Z,14.28
2022-11-23T10:44:33.757Z,14.33
2022-11-23T10:45:34.507Z,14.37
2022-11-23T10:46:34.508Z,14.40
2022-11-23T10:47:33.469Z,14.41
2022-11-23T10:48:32.649Z,14.41
2022-11-23T10:49:33.562Z,14.38
2022-11-23T10:50:33.336Z,14.37
2022-11-23T10:51:32.612Z,14.36
2022-11-23T10:52:34.399Z,14.35
2022-11-23T10:53:33.312Z,14.34
2022-11-23T10:54:33.690Z,14.32
2022-11-23T10:55:33.410Z,14.28
2022-11-23T10:56:32.431Z,14.23
2022-11-23T10:57:32.419Z,14.18
2022-11-23T10:58:33.350Z,14.12
2022-11-23T10:59:34.405Z,14.06
2022-11-23T11:00:33.341Z,14.01
2022-11-23T11:01:33.313Z,13.97
2022-11-23T11:02:34.320Z,13.92
2022-11-23T11:03:35.195Z,13.87
2022-11-23T11:04:33.579Z,13.83
2022-11-23T11:06:07.546Z,13.78
2022-11-23T11:06:35.395Z,13.74
2022-11-23T11:07:32.345Z,13.71
2022-11-23T11:08:33.776Z,13.68
2022-11-23T11:09:33.616Z,13.66
2022-11-23T11:10:33.222Z,13.65
2022-11-23T11:11:33.216Z,13.63
2022-11-23T11:12:33.744Z,13.62
2022-11-23T11:13:33.176Z,13.62
2022-11-23T11:14:42.781Z,13.62
2022-11-23T11:15:42.435Z,13.62
2022-11-23T11:16:35.155Z,13.63
2022-11-23T11:17:32.206Z,13.63
2022-11-23T11:18:33.140Z,13.64
2022-11-23T11:19:33.158Z,13.63
2022-11-23T11:20:33.085Z,13.62
2022-11-23T11:21:33.084Z,13.63
2022-11-23T11:22:32.157Z,13.63
2022-11-23T11:23:33.096Z,13.63
2022-11-23T11:24:32.611Z,13.62
2022-11-23T11:25:33.036Z,13.60
2022-11-23T11:26:33.568Z,13.59
2022-11-23T11:27:33.559Z,13.57
2022-11-23T11:28:33.024Z,13.54
2022-11-23T11:29:38.386Z,13.53
2022-11-23T11:30:35.010Z,13.53
2022-11-23T11:31:32.982Z,13.51
2022-11-23T11:32:33.510Z,13.50
2022-11-23T11:33:36.276Z,13.52
2022-11-23T11:34:33.358Z,13.51
2022-11-23T11:35:32.924Z,13.52
2022-11-23T11:36:33.665Z,13.53
2022-11-23T11:37:32.903Z,13.53
2022-11-23T11:38:31.988Z,13.53
2022-11-23T11:39:32.881Z,13.53
2022-11-23T11:40:31.956Z,13.53
2022-11-23T11:41:31.948Z,13.52
2022-11-23T11:42:31.973Z,13.51
2022-11-23T11:43:39.484Z,13.51
2022-11-23T11:44:34.021Z,13.51
2022-11-23T11:45:33.322Z,13.51
2022-11-23T11:46:31.903Z,13.51
2022-11-23T11:47:33.813Z,13.51
2022-11-23T11:48:32.843Z,13.51
2022-11-23T11:49:32.784Z,13.50
2022-11-23T11:50:33.321Z,13.51
2022-11-23T11:51:33.384Z,13.51
2022-11-23T11:52:31.852Z,13.50
2022-11-23T11:53:32.736Z,13.49
2022-11-23T11:54:32.188Z,13.47
2022-11-23T11:55:31.813Z,13.48
2022-11-23T11:56:33.255Z,13.46
2022-11-23T11:57:32.722Z,13.45
2022-11-23T11:58:32.698Z,13.46
2022-11-23T11:59:33.531Z,13.48
2022-11-23T12:00:31.855Z,13.47
2022-11-23T12:01:33.148Z,13.48
2022-11-23T12:02:31.780Z,13.47
2022-11-23T12:03:32.665Z,13.47
2022-11-23T12:04:31.907Z,13.46
2022-11-23T12:05:32.631Z,13.42
2022-11-23T12:06:32.706Z,13.41
2022-11-23T12:07:33.135Z,13.41
2022-11-23T12:08:33.513Z,13.41
2022-11-23T12:09:33.333Z,13.38
2022-11-23T12:10:33.050Z,13.36
2022-11-23T12:11:32.770Z,13.36
2022-11-23T12:12:32.590Z,13.36
2022-11-23T12:13:32.548Z,13.36
2022-11-23T12:14:32.870Z,13.33
2022-11-23T12:15:48.822Z,13.31
2022-11-23T12:16:33.527Z,13.33
2022-11-23T12:17:33.517Z,13.33
2022-11-23T12:18:33.017Z,13.36
2022-11-23T12:19:33.219Z,13.38
2022-11-23T12:20:32.081Z,13.40
2022-11-23T12:21:32.489Z,13.39
2022-11-23T12:22:32.918Z,13.40
2022-11-23T12:23:32.921Z,13.39
2022-11-23T12:24:33.351Z,13.39
2022-11-23T12:25:32.890Z,13.36
2022-11-23T12:26:32.424Z,13.35
2022-11-23T12:27:31.480Z,13.34
2022-11-23T12:28:32.883Z,13.31
2022-11-23T12:29:32.644Z,13.30
2022-11-23T12:30:32.362Z,13.30
2022-11-23T12:31:31.412Z,13.31
2022-11-23T12:32:31.402Z,13.31
2022-11-23T12:33:32.324Z,13.30
2022-11-23T12:34:33.258Z,13.32
2022-11-23T12:35:33.324Z,13.34
2022-11-23T12:36:32.254Z,13.33
2022-11-23T12:37:32.255Z,13.33
2022-11-23T12:38:32.265Z,13.37
2022-11-23T12:39:32.743Z,13.36
2022-11-23T12:40:32.746Z,13.35
2022-11-23T12:41:32.255Z,13.36
2022-11-23T12:42:32.684Z,13.41
2022-11-23T12:43:36.407Z,13.44
2022-11-23T12:44:32.593Z,13.46
2022-11-23T12:45:32.664Z,13.50
2022-11-23T12:46:31.247Z,13.53
2022-11-23T12:47:32.765Z,13.52
2022-11-23T12:48:32.175Z,13.55
2022-11-23T12:49:36.109Z,13.57
2022-11-23T12:50:32.218Z,13.62
2022-11-23T12:51:32.125Z,13.67
2022-11-23T12:52:32.116Z,13.75
2022-11-23T12:53:32.143Z,13.86
2022-11-23T12:54:31.420Z,13.94
2022-11-23T12:55:31.618Z,14.01